sensor_id;sensor_type;location;lat;lon;timestamp;P1;durP1;ratioP1;P2;durP2;ratioP2
1128;SDS011;553;51.038;7.216;2023-01-29T00:01:50;56.63;;;27.15;;
1128;SDS011;553;51.038;7.216;2023-01-29T00:04:18;64.65;;;28.73;;
1128;SDS011;553;51.038;7.216;2023-01-29T00:06:45;56.60;;;28.85;;
1128;SDS011;553;51.038;7.216;2023-01-29T00:09:11;56.03;;;27.48;;
1128;SDS011;553;51.038;7.216;2023-01-29T00:11:39;55.13;;;27.33;;
1128;SDS011;553;51.038;7.216;2023-01-29T00:14:06;55.65;;;26.40;;
1128;SDS011;553;51.038;7.216;2023-01-29T00:16:33;58.20;;;27.92;;
1128;SDS011;553;51.038;7.216;2023-01-29T00:19:00;56.33;;;28.00;;
1128;SDS011;553;51.038;7.216;2023-01-29T00:21:28;62.08;;;29.10;;
1128;SDS011;553;51.038;7.216;2023-01-29T00:23:58;64.03;;;29.67;;
1128;SDS011;553;51.038;7.216;2023-01-29T00:26:26;56.13;;;28.60;;
1128;SDS011;553;51.038;7.216;2023-01-29T00:28:53;51.72;;;26.52;;
1128;SDS011;553;51.038;7.216;2023-01-29T00:31:22;48.80;;;26.48;;
1128;SDS011;553;51.038;7.216;2023-01-29T00:33:50;60.85;;;29.77;;
1128;SDS011;553;51.038;7.216;2023-01-29T00:36:18;56.83;;;27.40;;
1128;SDS011;553;51.038;7.216;2023-01-29T00:38:46;58.42;;;27.48;;
1128;SDS011;553;51.038;7.216;2023-01-29T00:41:21;54.15;;;26.85;;
1128;SDS011;553;51.038;7.216;2023-01-29T00:44:07;54.03;;;27.52;;
1128;SDS011;553;51.038;7.216;2023-01-29T00:46:53;68.05;;;28.50;;
1128;SDS011;553;51.038;7.216;2023-01-29T00:49:20;53.38;;;25.85;;
1128;SDS011;553;51.038;7.216;2023-01-29T00:51:47;55.85;;;27.75;;
1128;SDS011;553;51.038;7.216;2023-01-29T00:54:34;50.88;;;25.15;;
1128;SDS011;553;51.038;7.216;2023-01-29T00:57:02;60.22;;;27.70;;
1128;SDS011;553;51.038;7.216;2023-01-29T00:59:30;53.03;;;26.20;;
1128;SDS011;553;51.038;7.216;2023-01-29T01:01:57;63.30;;;28.88;;
1128;SDS011;553;51.038;7.216;2023-01-29T01:04:42;51.45;;;25.85;;
1128;SDS011;553;51.038;7.216;2023-01-29T01:07:09;49.90;;;24.92;;
1128;SDS011;553;51.038;7.216;2023-01-29T01:09:35;49.93;;;24.43;;
1128;SDS011;553;51.038;7.216;2023-01-29T01:12:21;62.55;;;26.65;;
1128;SDS011;553;51.038;7.216;2023-01-29T01:14:48;49.67;;;25.40;;
1128;SDS011;553;51.038;7.216;2023-01-29T01:17:15;57.97;;;26.23;;
1128;SDS011;553;51.038;7.216;2023-01-29T01:19:42;56.20;;;28.42;;
1128;SDS011;553;51.038;7.216;2023-01-29T01:22:09;58.58;;;27.52;;
1128;SDS011;553;51.038;7.216;2023-01-29T01:24:36;55.30;;;26.73;;
1128;SDS011;553;51.038;7.216;2023-01-29T01:27:03;51.80;;;26.95;;
1128;SDS011;553;51.038;7.216;2023-01-29T01:29:31;53.00;;;26.05;;
1128;SDS011;553;51.038;7.216;2023-01-29T01:31:57;49.40;;;24.63;;
1128;SDS011;553;51.038;7.216;2023-01-29T01:34:24;49.47;;;25.17;;
1128;SDS011;553;51.038;7.216;2023-01-29T01:36:52;46.47;;;25.10;;
1128;SDS011;553;51.038;7.216;2023-01-29T01:39:21;45.72;;;23.33;;
1128;SDS011;553;51.038;7.216;2023-01-29T01:41:48;49.25;;;23.67;;
1128;SDS011;553;51.038;7.216;2023-01-29T01:47:19;51.95;;;24.77;;
1128;SDS011;553;51.038;7.216;2023-01-29T01:49:49;52.33;;;24.05;;
1128;SDS011;553;51.038;7.216;2023-01-29T01:52:16;52.30;;;25.13;;
1128;SDS011;553;51.038;7.216;2023-01-29T01:54:45;44.25;;;23.95;;
1128;SDS011;553;51.038;7.216;2023-01-29T01:57:14;42.20;;;22.95;;
1128;SDS011;553;51.038;7.216;2023-01-29T01:59:58;68.65;;;25.95;;
1128;SDS011;553;51.038;7.216;2023-01-29T02:02:38;49.08;;;23.08;;
1128;SDS011;553;51.038;7.216;2023-01-29T02:05:26;49.80;;;27.10;;
1128;SDS011;553;51.038;7.216;2023-01-29T02:08:14;49.58;;;24.20;;
1128;SDS011;553;51.038;7.216;2023-01-29T02:11:08;50.90;;;24.17;;
1128;SDS011;553;51.038;7.216;2023-01-29T02:13:35;47.55;;;23.95;;
1128;SDS011;553;51.038;7.216;2023-01-29T02:16:02;45.50;;;23.80;;
1128;SDS011;553;51.038;7.216;2023-01-29T02:18:29;48.65;;;23.40;;
1128;SDS011;553;51.038;7.216;2023-01-29T02:21:06;47.10;;;23.33;;
1128;SDS011;553;51.038;7.216;2023-01-29T02:23:47;47.97;;;23.85;;
1128;SDS011;553;51.038;7.216;2023-01-29T02:26:49;50.67;;;23.88;;
1128;SDS011;553;51.038;7.216;2023-01-29T02:29:27;43.63;;;20.88;;
1128;SDS011;553;51.038;7.216;2023-01-29T02:32:28;38.78;;;21.17;;
1128;SDS011;553;51.038;7.216;2023-01-29T02:40:25;44.35;;;22.63;;
1128;SDS011;553;51.038;7.216;2023-01-29T02:49:12;46.83;;;22.90;;
1128;SDS011;553;51.038;7.216;2023-01-29T02:52:01;46.78;;;21.48;;
1128;SDS011;553;51.038;7.216;2023-01-29T02:54:45;42.40;;;21.65;;
1128;SDS011;553;51.038;7.216;2023-01-29T02:57:22;44.75;;;21.58;;
1128;SDS011;553;51.038;7.216;2023-01-29T02:59:56;46.20;;;21.65;;
1128;SDS011;553;51.038;7.216;2023-01-29T03:02:29;47.00;;;22.80;;
1128;SDS011;553;51.038;7.216;2023-01-29T03:05:07;45.45;;;22.65;;
1128;SDS011;553;51.038;7.216;2023-01-29T03:07:40;49.40;;;23.30;;
1128;SDS011;553;51.038;7.216;2023-01-29T03:10:25;49.65;;;23.48;;
1128;SDS011;553;51.038;7.216;2023-01-29T03:13:01;45.58;;;24.27;;
1128;SDS011;553;51.038;7.216;2023-01-29T03:15:43;48.55;;;22.45;;
1128;SDS011;553;51.038;7.216;2023-01-29T03:18:35;43.85;;;21.83;;
1128;SDS011;553;51.038;7.216;2023-01-29T03:21:24;44.75;;;21.38;;
1128;SDS011;553;51.038;7.216;2023-01-29T03:25:02;47.40;;;22.55;;
1128;SDS011;553;51.038;7.216;2023-01-29T03:27:32;65.85;;;26.38;;
1128;SDS011;553;51.038;7.216;2023-01-29T03:30:31;45.80;;;23.95;;
1128;SDS011;553;51.038;7.216;2023-01-29T03:33:30;52.75;;;22.58;;
1128;SDS011;553;51.038;7.216;2023-01-29T03:36:04;49.47;;;23.65;;
1128;SDS011;553;51.038;7.216;2023-01-29T03:38:39;49.38;;;23.05;;
1128;SDS011;553;51.038;7.216;2023-01-29T03:41:08;45.53;;;21.88;;
1128;SDS011;553;51.038;7.216;2023-01-29T03:46:47;44.80;;;23.15;;
1128;SDS011;553;51.038;7.216;2023-01-29T03:52:37;49.75;;;23.80;;
1128;SDS011;553;51.038;7.216;2023-01-29T03:57:49;52.00;;;25.73;;
1128;SDS011;553;51.038;7.216;2023-01-29T04:00:33;51.92;;;23.95;;
1128;SDS011;553;51.038;7.216;2023-01-29T04:03:05;49.80;;;24.70;;
1128;SDS011;553;51.038;7.216;2023-01-29T04:05:46;47.05;;;22.45;;
1128;SDS011;553;51.038;7.216;2023-01-29T04:11:14;47.03;;;21.17;;
1128;SDS011;553;51.038;7.216;2023-01-29T04:13:44;44.67;;;22.30;;
1128;SDS011;553;51.038;7.216;2023-01-29T04:16:16;45.95;;;23.35;;
1128;SDS011;553;51.038;7.216;2023-01-29T04:19:09;54.75;;;22.90;;
1128;SDS011;553;51.038;7.216;2023-01-29T04:21:39;46.92;;;21.38;;
1128;SDS011;553;51.038;7.216;2023-01-29T04:24:07;50.25;;;24.42;;
1128;SDS011;553;51.038;7.216;2023-01-29T04:34:48;50.47;;;25.52;;
1128;SDS011;553;51.038;7.216;2023-01-29T04:42:29;49.08;;;23.48;;
1128;SDS011;553;51.038;7.216;2023-01-29T04:50:37;43.88;;;22.00;;
1128;SDS011;553;51.038;7.216;2023-01-29T04:53:12;52.58;;;25.13;;
1128;SDS011;553;51.038;7.216;2023-01-29T04:56:11;51.50;;;24.55;;
1128;SDS011;553;51.038;7.216;2023-01-29T04:58:53;42.75;;;22.15;;
1128;SDS011;553;51.038;7.216;2023-01-29T05:01:25;49.75;;;23.25;;
1128;SDS011;553;51.038;7.216;2023-01-29T05:03:55;54.47;;;23.77;;
1128;SDS011;553;51.038;7.216;2023-01-29T05:06:23;55.38;;;23.63;;
1128;SDS011;553;51.038;7.216;2023-01-29T05:08:51;53.75;;;24.50;;
1128;SDS011;553;51.038;7.216;2023-01-29T05:11:20;48.05;;;22.95;;
1128;SDS011;553;51.038;7.216;2023-01-29T05:13:49;49.20;;;24.35;;
1128;SDS011;553;51.038;7.216;2023-01-29T05:16:20;48.08;;;24.10;;
1128;SDS011;553;51.038;7.216;2023-01-29T05:18:51;49.63;;;23.73;;
1128;SDS011;553;51.038;7.216;2023-01-29T05:21:19;53.28;;;23.55;;
1128;SDS011;553;51.038;7.216;2023-01-29T05:26:34;55.15;;;24.27;;
1128;SDS011;553;51.038;7.216;2023-01-29T05:29:20;49.13;;;25.15;;
1128;SDS011;553;51.038;7.216;2023-01-29T05:31:47;54.75;;;23.98;;
1128;SDS011;553;51.038;7.216;2023-01-29T05:34:13;44.10;;;22.38;;
1128;SDS011;553;51.038;7.216;2023-01-29T05:36:40;51.92;;;25.42;;
1128;SDS011;553;51.038;7.216;2023-01-29T05:39:07;53.45;;;23.63;;
1128;SDS011;553;51.038;7.216;2023-01-29T05:41:33;47.80;;;24.17;;
1128;SDS011;553;51.038;7.216;2023-01-29T05:44:00;50.78;;;25.73;;
1128;SDS011;553;51.038;7.216;2023-01-29T05:46:27;57.22;;;25.80;;
1128;SDS011;553;51.038;7.216;2023-01-29T05:48:54;50.95;;;23.83;;
1128;SDS011;553;51.038;7.216;2023-01-29T05:51:20;51.92;;;23.23;;
1128;SDS011;553;51.038;7.216;2023-01-29T05:53:47;47.22;;;23.10;;
1128;SDS011;553;51.038;7.216;2023-01-29T05:56:14;56.95;;;25.70;;
1128;SDS011;553;51.038;7.216;2023-01-29T05:58:41;55.42;;;25.52;;
1128;SDS011;553;51.038;7.216;2023-01-29T06:01:11;51.67;;;24.08;;
1128;SDS011;553;51.038;7.216;2023-01-29T06:03:43;50.38;;;25.13;;
1128;SDS011;553;51.038;7.216;2023-01-29T06:06:10;51.95;;;25.55;;
1128;SDS011;553;51.038;7.216;2023-01-29T06:08:38;60.88;;;28.33;;
1128;SDS011;553;51.038;7.216;2023-01-29T06:11:08;57.80;;;25.33;;
1128;SDS011;553;51.038;7.216;2023-01-29T06:13:37;53.65;;;25.83;;
1128;SDS011;553;51.038;7.216;2023-01-29T06:16:04;49.90;;;24.85;;
1128;SDS011;553;51.038;7.216;2023-01-29T06:18:32;52.13;;;24.52;;
1128;SDS011;553;51.038;7.216;2023-01-29T06:21:00;59.92;;;23.30;;
1128;SDS011;553;51.038;7.216;2023-01-29T06:23:28;56.03;;;27.13;;
1128;SDS011;553;51.038;7.216;2023-01-29T06:26:01;48.65;;;23.95;;
1128;SDS011;553;51.038;7.216;2023-01-29T06:28:31;56.08;;;25.60;;
1128;SDS011;553;51.038;7.216;2023-01-29T06:31:01;55.10;;;24.63;;
1128;SDS011;553;51.038;7.216;2023-01-29T06:33:49;57.72;;;27.58;;
1128;SDS011;553;51.038;7.216;2023-01-29T06:36:15;53.60;;;27.20;;
1128;SDS011;553;51.038;7.216;2023-01-29T06:38:42;62.05;;;29.25;;
1128;SDS011;553;51.038;7.216;2023-01-29T06:41:13;50.95;;;27.45;;
1128;SDS011;553;51.038;7.216;2023-01-29T06:43:43;59.88;;;26.55;;
1128;SDS011;553;51.038;7.216;2023-01-29T06:46:11;59.67;;;26.70;;
1128;SDS011;553;51.038;7.216;2023-01-29T06:48:38;60.70;;;26.17;;
1128;SDS011;553;51.038;7.216;2023-01-29T06:51:05;58.95;;;27.02;;
1128;SDS011;553;51.038;7.216;2023-01-29T06:53:34;53.40;;;25.83;;
1128;SDS011;553;51.038;7.216;2023-01-29T06:56:02;62.00;;;29.20;;
1128;SDS011;553;51.038;7.216;2023-01-29T06:58:30;59.05;;;28.45;;
1128;SDS011;553;51.038;7.216;2023-01-29T07:01:04;58.78;;;28.38;;
1128;SDS011;553;51.038;7.216;2023-01-29T07:03:32;60.47;;;27.15;;
1128;SDS011;553;51.038;7.216;2023-01-29T07:06:00;57.95;;;27.23;;
1128;SDS011;553;51.038;7.216;2023-01-29T07:08:26;63.00;;;28.40;;
1128;SDS011;553;51.038;7.216;2023-01-29T07:10:59;69.28;;;29.30;;
1128;SDS011;553;51.038;7.216;2023-01-29T07:13:26;70.90;;;32.03;;
1128;SDS011;553;51.038;7.216;2023-01-29T07:15:56;59.95;;;27.90;;
1128;SDS011;553;51.038;7.216;2023-01-29T07:18:24;60.13;;;28.75;;
1128;SDS011;553;51.038;7.216;2023-01-29T07:20:52;65.05;;;28.63;;
1128;SDS011;553;51.038;7.216;2023-01-29T07:23:18;66.20;;;31.73;;
1128;SDS011;553;51.038;7.216;2023-01-29T07:25:45;62.22;;;28.90;;
1128;SDS011;553;51.038;7.216;2023-01-29T07:28:15;64.85;;;29.15;;
1128;SDS011;553;51.038;7.216;2023-01-29T07:30:43;60.85;;;27.83;;
1128;SDS011;553;51.038;7.216;2023-01-29T07:33:10;63.33;;;29.80;;
1128;SDS011;553;51.038;7.216;2023-01-29T07:35:38;74.40;;;31.35;;
1128;SDS011;553;51.038;7.216;2023-01-29T07:38:07;67.80;;;29.02;;
1128;SDS011;553;51.038;7.216;2023-01-29T07:40:35;68.40;;;30.52;;
1128;SDS011;553;51.038;7.216;2023-01-29T07:43:02;68.10;;;32.55;;
1128;SDS011;553;51.038;7.216;2023-01-29T07:45:33;62.70;;;30.48;;
1128;SDS011;553;51.038;7.216;2023-01-29T07:48:01;63.67;;;29.38;;
1128;SDS011;553;51.038;7.216;2023-01-29T07:50:30;58.50;;;30.33;;
1128;SDS011;553;51.038;7.216;2023-01-29T07:52:58;64.30;;;29.38;;
1128;SDS011;553;51.038;7.216;2023-01-29T07:55:25;64.65;;;30.13;;
1128;SDS011;553;51.038;7.216;2023-01-29T07:57:53;62.28;;;29.90;;
1128;SDS011;553;51.038;7.216;2023-01-29T08:00:21;63.58;;;30.17;;
1128;SDS011;553;51.038;7.216;2023-01-29T08:02:49;72.88;;;32.22;;
1128;SDS011;553;51.038;7.216;2023-01-29T08:05:16;54.55;;;27.27;;
1128;SDS011;553;51.038;7.216;2023-01-29T08:07:43;61.53;;;29.27;;
1128;SDS011;553;51.038;7.216;2023-01-29T08:10:19;65.18;;;30.95;;
1128;SDS011;553;51.038;7.216;2023-01-29T08:12:46;67.18;;;30.48;;
1128;SDS011;553;51.038;7.216;2023-01-29T08:15:13;74.18;;;29.52;;
1128;SDS011;553;51.038;7.216;2023-01-29T08:17:39;62.20;;;29.88;;
1128;SDS011;553;51.038;7.216;2023-01-29T08:20:27;64.38;;;32.75;;
1128;SDS011;553;51.038;7.216;2023-01-29T08:23:01;61.70;;;30.38;;
1128;SDS011;553;51.038;7.216;2023-01-29T08:25:29;61.55;;;29.60;;
1128;SDS011;553;51.038;7.216;2023-01-29T08:27:56;70.40;;;31.42;;
1128;SDS011;553;51.038;7.216;2023-01-29T08:30:27;70.88;;;30.55;;
1128;SDS011;553;51.038;7.216;2023-01-29T08:32:55;62.35;;;28.50;;
1128;SDS011;553;51.038;7.216;2023-01-29T08:35:23;68.82;;;32.35;;
1128;SDS011;553;51.038;7.216;2023-01-29T08:37:53;67.70;;;30.25;;
1128;SDS011;553;51.038;7.216;2023-01-29T08:40:25;70.68;;;31.17;;
1128;SDS011;553;51.038;7.216;2023-01-29T08:43:27;65.13;;;30.38;;
1128;SDS011;553;51.038;7.216;2023-01-29T08:45:46;74.88;;;30.80;;
1128;SDS011;553;51.038;7.216;2023-01-29T08:48:13;66.30;;;32.38;;
1128;SDS011;553;51.038;7.216;2023-01-29T08:50:40;68.85;;;33.53;;
1128;SDS011;553;51.038;7.216;2023-01-29T08:53:07;69.55;;;31.77;;
1128;SDS011;553;51.038;7.216;2023-01-29T08:55:35;80.85;;;34.80;;
1128;SDS011;553;51.038;7.216;2023-01-29T08:58:03;75.13;;;34.40;;
1128;SDS011;553;51.038;7.216;2023-01-29T09:00:32;70.13;;;31.88;;
1128;SDS011;553;51.038;7.216;2023-01-29T09:02:59;68.85;;;31.92;;
1128;SDS011;553;51.038;7.216;2023-01-29T09:05:26;68.97;;;31.05;;
1128;SDS011;553;51.038;7.216;2023-01-29T09:07:55;61.00;;;31.30;;
1128;SDS011;553;51.038;7.216;2023-01-29T09:10:22;70.72;;;31.38;;
1128;SDS011;553;51.038;7.216;2023-01-29T09:12:49;73.25;;;33.50;;
1128;SDS011;553;51.038;7.216;2023-01-29T09:15:16;71.47;;;30.45;;
1128;SDS011;553;51.038;7.216;2023-01-29T09:17:44;73.68;;;31.90;;
1128;SDS011;553;51.038;7.216;2023-01-29T09:20:10;82.25;;;32.67;;
1128;SDS011;553;51.038;7.216;2023-01-29T09:22:37;65.18;;;31.42;;
1128;SDS011;553;51.038;7.216;2023-01-29T09:25:04;66.60;;;30.90;;
1128;SDS011;553;51.038;7.216;2023-01-29T09:27:31;62.65;;;29.25;;
1128;SDS011;553;51.038;7.216;2023-01-29T09:29:58;70.40;;;31.25;;
1128;SDS011;553;51.038;7.216;2023-01-29T09:32:25;56.65;;;27.60;;
1128;SDS011;553;51.038;7.216;2023-01-29T09:35:11;62.90;;;27.80;;
1128;SDS011;553;51.038;7.216;2023-01-29T09:37:38;58.00;;;28.75;;
1128;SDS011;553;51.038;7.216;2023-01-29T09:40:05;57.50;;;31.15;;
1128;SDS011;553;51.038;7.216;2023-01-29T09:42:40;65.82;;;31.55;;
1128;SDS011;553;51.038;7.216;2023-01-29T09:45:18;58.38;;;29.15;;
1128;SDS011;553;51.038;7.216;2023-01-29T09:47:49;60.00;;;27.63;;
1128;SDS011;553;51.038;7.216;2023-01-29T09:50:18;64.07;;;29.77;;
1128;SDS011;553;51.038;7.216;2023-01-29T09:53:02;61.90;;;28.70;;
1128;SDS011;553;51.038;7.216;2023-01-29T09:55:48;63.00;;;28.85;;
1128;SDS011;553;51.038;7.216;2023-01-29T09:58:26;66.05;;;30.42;;
1128;SDS011;553;51.038;7.216;2023-01-29T10:14:58;73.38;;;30.30;;
1128;SDS011;553;51.038;7.216;2023-01-29T10:17:59;58.53;;;28.42;;
1128;SDS011;553;51.038;7.216;2023-01-29T10:23:13;57.55;;;27.75;;
1128;SDS011;553;51.038;7.216;2023-01-29T10:25:52;64.35;;;31.05;;
1128;SDS011;553;51.038;7.216;2023-01-29T10:28:22;75.30;;;31.02;;
1128;SDS011;553;51.038;7.216;2023-01-29T10:30:54;70.43;;;30.25;;
1128;SDS011;553;51.038;7.216;2023-01-29T10:33:38;74.00;;;30.38;;
1128;SDS011;553;51.038;7.216;2023-01-29T10:39:01;72.55;;;33.65;;
1128;SDS011;553;51.038;7.216;2023-01-29T10:41:42;58.35;;;29.55;;
1128;SDS011;553;51.038;7.216;2023-01-29T10:44:28;68.10;;;31.85;;
1128;SDS011;553;51.038;7.216;2023-01-29T10:47:20;72.30;;;32.85;;
1128;SDS011;553;51.038;7.216;2023-01-29T10:58:37;65.25;;;29.13;;
1128;SDS011;553;51.038;7.216;2023-01-29T11:01:11;62.30;;;30.08;;
1128;SDS011;553;51.038;7.216;2023-01-29T11:03:38;63.67;;;29.88;;
1128;SDS011;553;51.038;7.216;2023-01-29T11:06:21;63.70;;;32.47;;
1128;SDS011;553;51.038;7.216;2023-01-29T11:11:46;62.10;;;29.95;;
1128;SDS011;553;51.038;7.216;2023-01-29T11:14:21;62.60;;;30.00;;
1128;SDS011;553;51.038;7.216;2023-01-29T11:16:53;61.63;;;27.15;;
1128;SDS011;553;51.038;7.216;2023-01-29T11:19:54;58.42;;;30.35;;
1128;SDS011;553;51.038;7.216;2023-01-29T11:22:17;59.45;;;28.63;;
1128;SDS011;553;51.038;7.216;2023-01-29T11:25:15;57.72;;;29.80;;
1128;SDS011;553;51.038;7.216;2023-01-29T11:27:44;64.05;;;30.85;;
1128;SDS011;553;51.038;7.216;2023-01-29T11:30:25;53.05;;;26.15;;
1128;SDS011;553;51.038;7.216;2023-01-29T11:33:16;69.22;;;29.30;;
1128;SDS011;553;51.038;7.216;2023-01-29T11:35:45;58.53;;;28.55;;
1128;SDS011;553;51.038;7.216;2023-01-29T11:40:41;56.17;;;29.20;;
1128;SDS011;553;51.038;7.216;2023-01-29T11:43:29;54.97;;;26.35;;
1128;SDS011;553;51.038;7.216;2023-01-29T11:45:57;61.25;;;29.27;;
1128;SDS011;553;51.038;7.216;2023-01-29T11:48:32;62.20;;;28.67;;
1128;SDS011;553;51.038;7.216;2023-01-29T11:51:09;64.15;;;30.92;;
1128;SDS011;553;51.038;7.216;2023-01-29T11:53:45;54.30;;;27.00;;
1128;SDS011;553;51.038;7.216;2023-01-29T11:56:19;62.35;;;29.30;;
1128;SDS011;553;51.038;7.216;2023-01-29T11:58:49;63.47;;;29.60;;
1128;SDS011;553;51.038;7.216;2023-01-29T12:01:22;61.03;;;29.50;;
1128;SDS011;553;51.038;7.216;2023-01-29T12:03:56;55.53;;;28.33;;
1128;SDS011;553;51.038;7.216;2023-01-29T12:06:26;58.85;;;28.25;;
1128;SDS011;553;51.038;7.216;2023-01-29T12:09:12;54.08;;;28.85;;
1128;SDS011;553;51.038;7.216;2023-01-29T12:11:42;55.58;;;29.00;;
1128;SDS011;553;51.038;7.216;2023-01-29T12:17:00;56.53;;;27.38;;
1128;SDS011;553;51.038;7.216;2023-01-29T12:19:43;52.85;;;27.83;;
1128;SDS011;553;51.038;7.216;2023-01-29T12:22:16;51.55;;;27.42;;
1128;SDS011;553;51.038;7.216;2023-01-29T12:27:31;54.22;;;27.33;;
1128;SDS011;553;51.038;7.216;2023-01-29T12:30:24;58.40;;;29.25;;
1128;SDS011;553;51.038;7.216;2023-01-29T12:35:41;54.95;;;28.35;;
1128;SDS011;553;51.038;7.216;2023-01-29T12:38:15;58.78;;;28.02;;
1128;SDS011;553;51.038;7.216;2023-01-29T12:40:57;58.45;;;28.65;;
1128;SDS011;553;51.038;7.216;2023-01-29T12:43:48;50.25;;;26.42;;
1128;SDS011;553;51.038;7.216;2023-01-29T12:46:28;61.92;;;30.80;;
1128;SDS011;553;51.038;7.216;2023-01-29T12:49:00;65.35;;;30.23;;
1128;SDS011;553;51.038;7.216;2023-01-29T12:51:35;57.60;;;27.50;;
1128;SDS011;553;51.038;7.216;2023-01-29T12:54:07;57.25;;;28.42;;
1128;SDS011;553;51.038;7.216;2023-01-29T12:56:47;59.45;;;30.63;;
1128;SDS011;553;51.038;7.216;2023-01-29T13:02:19;46.97;;;25.17;;
1128;SDS011;553;51.038;7.216;2023-01-29T13:07:57;56.65;;;27.13;;
1128;SDS011;553;51.038;7.216;2023-01-29T13:10:43;51.45;;;25.02;;
1128;SDS011;553;51.038;7.216;2023-01-29T13:13:29;53.55;;;28.15;;
1128;SDS011;553;51.038;7.216;2023-01-29T13:15:59;57.50;;;28.95;;
1128;SDS011;553;51.038;7.216;2023-01-29T13:21:25;50.25;;;26.20;;
1128;SDS011;553;51.038;7.216;2023-01-29T13:24:01;50.72;;;27.48;;
1128;SDS011;553;51.038;7.216;2023-01-29T13:26:30;49.92;;;26.00;;
1128;SDS011;553;51.038;7.216;2023-01-29T13:29:05;57.53;;;26.67;;
1128;SDS011;553;51.038;7.216;2023-01-29T13:31:33;53.13;;;26.27;;
1128;SDS011;553;51.038;7.216;2023-01-29T13:36:31;50.15;;;26.67;;
1128;SDS011;553;51.038;7.216;2023-01-29T13:39:00;53.75;;;27.35;;
1128;SDS011;553;51.038;7.216;2023-01-29T13:41:31;49.22;;;25.40;;
1128;SDS011;553;51.038;7.216;2023-01-29T13:44:04;48.47;;;25.60;;
1128;SDS011;553;51.038;7.216;2023-01-29T13:46:33;51.47;;;25.90;;
1128;SDS011;553;51.038;7.216;2023-01-29T13:49:04;46.75;;;24.20;;
1128;SDS011;553;51.038;7.216;2023-01-29T13:51:47;49.45;;;24.33;;
1128;SDS011;553;51.038;7.216;2023-01-29T13:54:17;41.20;;;22.92;;
1128;SDS011;553;51.038;7.216;2023-01-29T14:02:20;59.47;;;26.35;;
1128;SDS011;553;51.038;7.216;2023-01-29T14:04:49;49.22;;;24.20;;
1128;SDS011;553;51.038;7.216;2023-01-29T14:07:37;48.47;;;25.05;;
1128;SDS011;553;51.038;7.216;2023-01-29T14:12:44;47.67;;;26.10;;
1128;SDS011;553;51.038;7.216;2023-01-29T14:15:16;53.30;;;26.98;;
1128;SDS011;553;51.038;7.216;2023-01-29T14:18:01;48.25;;;25.20;;
1128;SDS011;553;51.038;7.216;2023-01-29T14:26:17;46.97;;;23.95;;
1128;SDS011;553;51.038;7.216;2023-01-29T14:28:52;42.95;;;22.05;;
1128;SDS011;553;51.038;7.216;2023-01-29T14:35:02;50.30;;;27.83;;
1128;SDS011;553;51.038;7.216;2023-01-29T14:39:44;50.17;;;25.02;;
1128;SDS011;553;51.038;7.216;2023-01-29T14:42:20;43.90;;;22.33;;
1128;SDS011;553;51.038;7.216;2023-01-29T14:44:54;51.85;;;25.20;;
1128;SDS011;553;51.038;7.216;2023-01-29T14:49:54;46.40;;;24.63;;
1128;SDS011;553;51.038;7.216;2023-01-29T14:52:24;48.70;;;26.20;;
1128;SDS011;553;51.038;7.216;2023-01-29T14:55:02;53.75;;;26.63;;
1128;SDS011;553;51.038;7.216;2023-01-29T14:57:32;44.65;;;24.38;;
1128;SDS011;553;51.038;7.216;2023-01-29T15:00:03;39.15;;;21.00;;
1128;SDS011;553;51.038;7.216;2023-01-29T15:02:42;42.28;;;22.05;;
1128;SDS011;553;51.038;7.216;2023-01-29T15:05:11;46.33;;;22.08;;
1128;SDS011;553;51.038;7.216;2023-01-29T15:07:57;47.45;;;24.35;;
1128;SDS011;553;51.038;7.216;2023-01-29T15:10:39;51.25;;;24.33;;
1128;SDS011;553;51.038;7.216;2023-01-29T15:13:23;46.05;;;24.00;;
1128;SDS011;553;51.038;7.216;2023-01-29T15:16:02;46.28;;;25.30;;
1128;SDS011;553;51.038;7.216;2023-01-29T15:18:36;43.72;;;23.17;;
1128;SDS011;553;51.038;7.216;2023-01-29T15:21:12;46.30;;;24.08;;
1128;SDS011;553;51.038;7.216;2023-01-29T15:23:41;43.85;;;23.95;;
1128;SDS011;553;51.038;7.216;2023-01-29T15:26:16;44.88;;;23.23;;
1128;SDS011;553;51.038;7.216;2023-01-29T15:28:52;46.38;;;23.88;;
1128;SDS011;553;51.038;7.216;2023-01-29T15:31:29;42.13;;;24.02;;
1128;SDS011;553;51.038;7.216;2023-01-29T15:33:56;45.38;;;22.98;;
1128;SDS011;553;51.038;7.216;2023-01-29T15:36:32;45.10;;;22.73;;
1128;SDS011;553;51.038;7.216;2023-01-29T15:41:40;48.05;;;24.50;;
1128;SDS011;553;51.038;7.216;2023-01-29T15:44:12;41.10;;;22.75;;
1128;SDS011;553;51.038;7.216;2023-01-29T15:46:42;43.95;;;23.20;;
1128;SDS011;553;51.038;7.216;2023-01-29T15:49:20;48.08;;;25.10;;
1128;SDS011;553;51.038;7.216;2023-01-29T15:51:55;43.63;;;23.25;;
1128;SDS011;553;51.038;7.216;2023-01-29T15:54:23;43.15;;;23.27;;
1128;SDS011;553;51.038;7.216;2023-01-29T15:56:55;41.40;;;23.85;;
1128;SDS011;553;51.038;7.216;2023-01-29T15:59:24;41.88;;;23.42;;
1128;SDS011;553;51.038;7.216;2023-01-29T16:01:54;48.53;;;24.00;;
1128;SDS011;553;51.038;7.216;2023-01-29T16:04:27;47.10;;;24.70;;
1128;SDS011;553;51.038;7.216;2023-01-29T16:06:56;42.78;;;23.48;;
1128;SDS011;553;51.038;7.216;2023-01-29T16:09:25;47.92;;;24.10;;
1128;SDS011;553;51.038;7.216;2023-01-29T16:11:55;48.92;;;24.67;;
1128;SDS011;553;51.038;7.216;2023-01-29T16:14:23;44.33;;;23.67;;
1128;SDS011;553;51.038;7.216;2023-01-29T16:16:52;41.40;;;21.77;;
1128;SDS011;553;51.038;7.216;2023-01-29T16:19:20;46.08;;;25.65;;
1128;SDS011;553;51.038;7.216;2023-01-29T16:21:53;45.63;;;24.02;;
1128;SDS011;553;51.038;7.216;2023-01-29T16:24:25;36.50;;;21.85;;
1128;SDS011;553;51.038;7.216;2023-01-29T16:27:01;40.30;;;22.10;;
1128;SDS011;553;51.038;7.216;2023-01-29T16:29:38;42.72;;;24.45;;
1128;SDS011;553;51.038;7.216;2023-01-29T16:32:05;43.00;;;24.48;;
1128;SDS011;553;51.038;7.216;2023-01-29T16:34:42;41.55;;;24.35;;
1128;SDS011;553;51.038;7.216;2023-01-29T16:37:29;44.35;;;21.67;;
1128;SDS011;553;51.038;7.216;2023-01-29T16:39:58;44.10;;;22.42;;
1128;SDS011;553;51.038;7.216;2023-01-29T16:47:29;37.25;;;20.70;;
1128;SDS011;553;51.038;7.216;2023-01-29T16:53:10;38.10;;;18.95;;
1128;SDS011;553;51.038;7.216;2023-01-29T16:55:39;34.40;;;16.52;;
1128;SDS011;553;51.038;7.216;2023-01-29T16:58:12;28.10;;;14.40;;
1128;SDS011;553;51.038;7.216;2023-01-29T17:00:42;30.73;;;16.80;;
1128;SDS011;553;51.038;7.216;2023-01-29T17:03:17;25.95;;;15.27;;
1128;SDS011;553;51.038;7.216;2023-01-29T17:05:44;28.85;;;13.85;;
1128;SDS011;553;51.038;7.216;2023-01-29T17:08:24;27.08;;;14.02;;
1128;SDS011;553;51.038;7.216;2023-01-29T17:10:56;29.13;;;14.15;;
1128;SDS011;553;51.038;7.216;2023-01-29T17:13:34;24.58;;;13.40;;
1128;SDS011;553;51.038;7.216;2023-01-29T17:18:54;26.90;;;13.20;;
1128;SDS011;553;51.038;7.216;2023-01-29T17:21:21;23.02;;;12.45;;
1128;SDS011;553;51.038;7.216;2023-01-29T17:23:48;22.35;;;12.00;;
1128;SDS011;553;51.038;7.216;2023-01-29T17:26:15;19.88;;;11.43;;
1128;SDS011;553;51.038;7.216;2023-01-29T17:28:42;20.98;;;11.65;;
1128;SDS011;553;51.038;7.216;2023-01-29T17:31:09;23.42;;;11.75;;
1128;SDS011;553;51.038;7.216;2023-01-29T17:33:37;19.02;;;11.68;;
1128;SDS011;553;51.038;7.216;2023-01-29T17:36:10;21.08;;;11.95;;
1128;SDS011;553;51.038;7.216;2023-01-29T17:38:38;20.88;;;12.00;;
1128;SDS011;553;51.038;7.216;2023-01-29T17:41:21;26.33;;;13.55;;
1128;SDS011;553;51.038;7.216;2023-01-29T17:43:53;24.38;;;11.57;;
1128;SDS011;553;51.038;7.216;2023-01-29T17:46:20;27.95;;;14.48;;
1128;SDS011;553;51.038;7.216;2023-01-29T17:48:47;28.60;;;14.80;;
1128;SDS011;553;51.038;7.216;2023-01-29T17:51:17;25.45;;;13.93;;
1128;SDS011;553;51.038;7.216;2023-01-29T17:53:44;23.92;;;13.35;;